createdAt,value
2023-05-03T00:01:36.368Z,12.20
2023-05-03T00:04:04.292Z,10.80
2023-05-03T00:06:32.151Z,12.40
2023-05-03T00:08:59.749Z,12.30
2023-05-03T00:11:29.182Z,12.10
2023-05-03T00:13:56.469Z,14.30
2023-05-03T00:16:24.199Z,12.50
2023-05-03T00:18:51.420Z,11.00
2023-05-03T00:21:18.673Z,12.00
2023-05-03T00:23:46.505Z,12.80
2023-05-03T00:26:13.753Z,11.90
2023-05-03T00:28:40.887Z,11.70
2023-05-03T00:31:10.796Z,12.10
2023-05-03T00:33:39.277Z,11.30
2023-05-03T00:36:14.307Z,12.00
2023-05-03T00:38:42.800Z,12.80
2023-05-03T00:41:11.709Z,12.40
2023-05-03T00:43:39.599Z,12.00
2023-05-03T00:46:16.894Z,12.00
2023-05-03T00:48:49.732Z,12.70
2023-05-03T00:51:17.187Z,13.00
2023-05-03T00:53:44.493Z,13.30
2023-05-03T00:56:12.357Z,13.30
2023-05-03T00:58:40.892Z,13.10
2023-05-03T01:04:08.087Z,12.60
2023-05-03T01:09:48.909Z,12.80
2023-05-03T01:12:47.998Z,12.00
2023-05-03T01:15:24.721Z,11.90
2023-05-03T01:17:58.623Z,11.50
2023-05-03T01:20:31.783Z,12.20
2023-05-03T01:22:58.794Z,11.60
2023-05-03T01:25:29.465Z,11.30
2023-05-03T01:27:57.005Z,12.00
2023-05-03T01:30:28.467Z,12.40
2023-05-03T01:33:09.052Z,13.00
2023-05-03T01:35:58.168Z,10.90
2023-05-03T01:38:26.313Z,11.30
2023-05-03T01:40:56.272Z,11.70
2023-05-03T01:43:27.857Z,11.80
2023-05-03T01:45:55.456Z,11.90
2023-05-03T01:48:22.795Z,12.10
2023-05-03T01:50:50.638Z,12.50
2023-05-03T01:53:18.185Z,11.50
2023-05-03T01:55:45.245Z,12.70
2023-05-03T01:58:13.093Z,12.10
2023-05-03T02:00:40.553Z,11.80
2023-05-03T02:03:08.450Z,11.50
2023-05-03T02:05:35.907Z,12.00
2023-05-03T02:08:03.921Z,11.50
2023-05-03T02:10:31.422Z,11.80
2023-05-03T02:12:59.595Z,12.60
2023-05-03T02:15:27.215Z,12.60
2023-05-03T02:17:54.622Z,12.90
2023-05-03T02:20:22.175Z,13.10
2023-05-03T02:22:49.632Z,13.80
2023-05-03T02:25:16.758Z,14.40
2023-05-03T02:27:44.860Z,14.60
2023-05-03T02:30:12.702Z,14.30
2023-05-03T02:32:40.022Z,15.50
2023-05-03T02:35:07.832Z,14.60
2023-05-03T02:37:35.396Z,14.20
2023-05-03T02:40:02.938Z,14.80
2023-05-03T02:42:30.325Z,14.20
2023-05-03T02:44:58.080Z,14.50
2023-05-03T02:47:25.241Z,13.80
2023-05-03T02:49:52.298Z,15.10
2023-05-03T02:52:19.632Z,13.70
2023-05-03T02:54:47.682Z,13.40
2023-05-03T02:57:15.354Z,14.00
2023-05-03T02:59:42.474Z,13.70
2023-05-03T03:02:09.794Z,13.60
2023-05-03T03:04:41.091Z,14.50
2023-05-03T03:07:08.565Z,14.70
2023-05-03T03:09:36.416Z,14.70
2023-05-03T03:12:05.070Z,14.10
2023-05-03T03:14:33.581Z,16.00
2023-05-03T03:17:02.429Z,14.80
2023-05-03T03:19:29.680Z,14.30
2023-05-03T03:21:57.309Z,14.50
2023-05-03T03:24:24.396Z,13.90
2023-05-03T03:26:51.901Z,13.80
2023-05-03T03:29:19.278Z,13.70
2023-05-03T03:31:46.469Z,14.40
2023-05-03T03:34:14.608Z,12.70
2023-05-03T03:36:41.973Z,15.10
2023-05-03T03:39:09.200Z,14.00
2023-05-03T03:41:36.736Z,14.40
2023-05-03T03:44:04.414Z,14.60
2023-05-03T03:46:31.737Z,14.70
2023-05-03T03:48:58.905Z,16.40
2023-05-03T03:51:27.239Z,15.30
2023-05-03T03:53:54.555Z,16.40
2023-05-03T03:56:22.593Z,15.00
2023-05-03T03:58:49.790Z,16.20
2023-05-03T04:01:17.070Z,16.60
2023-05-03T04:03:48.332Z,16.60
2023-05-03T04:06:15.925Z,17.50
2023-05-03T04:08:43.335Z,17.50
2023-05-03T04:11:13.118Z,16.60
2023-05-03T04:13:40.968Z,16.60
2023-05-03T04:16:09.034Z,16.60
2023-05-03T04:18:36.712Z,15.40
2023-05-03T04:21:04.452Z,15.80
2023-05-03T04:23:32.229Z,15.20
2023-05-03T04:26:01.294Z,15.00
2023-05-03T04:28:30.044Z,15.30
2023-05-03T04:30:59.137Z,14.30
2023-05-03T04:33:29.260Z,14.20
2023-05-03T04:35:56.876Z,14.80
2023-05-03T04:38:24.275Z,14.90
2023-05-03T04:40:51.702Z,14.90
2023-05-03T04:43:19.140Z,13.70
2023-05-03T04:45:46.325Z,14.70
2023-05-03T04:48:13.959Z,14.00
2023-05-03T04:50:41.541Z,14.10
2023-05-03T04:53:08.717Z,13.80
2023-05-03T04:55:36.551Z,13.20
2023-05-03T04:58:04.034Z,12.90
2023-05-03T05:00:31.384Z,13.10
2023-05-03T05:02:59.688Z,11.60
2023-05-03T05:05:27.591Z,11.70
2023-05-03T05:07:54.756Z,12.40
2023-05-03T05:10:22.134Z,10.80
2023-05-03T05:12:49.304Z,9.50
2023-05-03T05:15:16.661Z,9.70
2023-05-03T05:17:44.617Z,9.80
2023-05-03T05:20:16.262Z,9.10
2023-05-03T05:22:44.110Z,8.10
2023-05-03T05:25:11.854Z,8.90
2023-05-03T05:27:39.412Z,8.40
2023-05-03T05:30:07.615Z,9.10
2023-05-03T05:32:35.103Z,8.30
2023-05-03T05:35:02.545Z,8.30
2023-05-03T05:37:29.788Z,8.60
2023-05-03T05:39:57.948Z,8.50
2023-05-03T05:42:25.606Z,9.00
2023-05-03T05:44:53.121Z,8.00
2023-05-03T05:47:20.749Z,10.70
2023-05-03T05:49:48.426Z,10.00
2023-05-03T05:52:15.535Z,9.50
2023-05-03T05:54:43.204Z,10.50
2023-05-03T05:57:11.294Z,10.00
2023-05-03T05:59:39.101Z,10.60
2023-05-03T06:02:15.104Z,11.90
2023-05-03T06:07:09.740Z,11.10
2023-05-03T06:09:37.147Z,10.80
2023-05-03T06:12:04.703Z,11.10
2023-05-03T06:14:31.886Z,9.60
2023-05-03T06:17:00.940Z,9.70
2023-05-03T06:19:29.055Z,10.00
2023-05-03T06:21:56.314Z,9.00
2023-05-03T06:24:23.488Z,8.90
2023-05-03T06:26:50.990Z,8.60
2023-05-03T06:29:18.697Z,9.00
2023-05-03T06:31:46.553Z,8.00
2023-05-03T06:34:14.493Z,10.80
2023-05-03T06:36:41.831Z,8.40
2023-05-03T06:39:10.419Z,8.60
2023-05-03T06:41:38.741Z,7.60
2023-05-03T06:44:07.816Z,7.70
2023-05-03T07:20:47.802Z,6.40
2023-05-03T07:23:16.133Z,6.10
2023-05-03T07:25:44.193Z,5.60
2023-05-03T07:28:12.172Z,5.80
2023-05-03T07:30:39.404Z,6.20
2023-05-03T07:33:12.131Z,5.50
2023-05-03T07:35:39.763Z,5.00
2023-05-03T07:38:07.240Z,4.60
2023-05-03T07:40:34.947Z,4.70
2023-05-03T07:43:02.385Z,5.20
2023-05-03T07:45:29.684Z,4.20
2023-05-03T07:47:57.290Z,4.80
2023-05-03T07:50:25.085Z,4.20
2023-05-03T07:52:52.368Z,4.60
2023-05-03T07:55:20.817Z,3.60
2023-05-03T07:57:48.188Z,4.10
2023-05-03T08:00:16.605Z,3.50
2023-05-03T08:02:43.931Z,4.00
2023-05-03T08:05:15.877Z,3.20
2023-05-03T08:07:43.275Z,3.70
2023-05-03T08:10:11.080Z,2.90
2023-05-03T08:12:38.810Z,3.10
2023-05-03T08:15:07.392Z,3.50
2023-05-03T08:17:46.808Z,3.60
2023-05-03T08:20:14.318Z,3.40
2023-05-03T08:22:42.820Z,3.00
2023-05-03T08:25:10.890Z,3.60
2023-05-03T08:27:39.377Z,3.30
2023-05-03T08:30:08.725Z,3.70
2023-05-03T08:32:36.307Z,3.40
2023-05-03T08:35:07.505Z,3.90
2023-05-03T08:37:42.521Z,3.60
2023-05-03T08:40:12.436Z,4.30
2023-05-03T08:42:44.540Z,3.50
2023-05-03T08:45:15.154Z,3.20
2023-05-03T08:47:45.299Z,3.50
2023-05-03T08:50:14.733Z,4.10
2023-05-03T08:52:43.498Z,4.10
2023-05-03T08:55:11.984Z,4.10
2023-05-03T08:57:39.808Z,4.20
2023-05-03T09:00:13.340Z,3.40
2023-05-03T09:02:41.943Z,3.90
2023-05-03T09:05:15.935Z,3.50
2023-05-03T09:08:05.129Z,3.80
2023-05-03T09:10:34.557Z,4.00
2023-05-03T09:13:03.780Z,3.30
2023-05-03T09:15:32.024Z,3.90
2023-05-03T09:18:14.111Z,4.00
2023-05-03T09:20:52.221Z,6.30
2023-05-03T09:23:27.211Z,5.10
2023-05-03T09:25:55.124Z,4.90
2023-05-03T09:28:22.833Z,4.70
2023-05-03T09:30:50.826Z,4.60
2023-05-03T09:33:34.821Z,4.40
2023-05-03T09:36:05.957Z,4.50
2023-05-03T09:38:35.357Z,4.70
2023-05-03T09:41:03.643Z,4.70
2023-05-03T09:43:30.926Z,5.90
2023-05-03T09:46:17.084Z,4.40
2023-05-03T09:48:44.596Z,5.00
2023-05-03T09:51:12.760Z,4.40
2023-05-03T09:53:42.388Z,4.70
2023-05-03T09:56:14.376Z,4.90
2023-05-03T09:58:44.355Z,5.60
2023-05-03T10:01:12.624Z,4.80
2023-05-03T10:03:45.320Z,4.30
2023-05-03T10:06:36.245Z,3.40
2023-05-03T10:09:30.190Z,5.10
2023-05-03T10:12:02.594Z,4.60
2023-05-03T10:14:30.127Z,4.70
2023-05-03T10:17:05.428Z,6.20
2023-05-03T10:19:59.074Z,5.60
2023-05-03T10:22:26.466Z,4.70
2023-05-03T10:25:03.228Z,4.20
2023-05-03T10:27:46.558Z,4.30
2023-05-03T10:30:26.639Z,4.60
2023-05-03T10:32:55.010Z,5.70
2023-05-03T10:35:26.794Z,4.30
2023-05-03T10:37:57.218Z,5.20
2023-05-03T10:40:24.884Z,4.40
2023-05-03T10:42:54.998Z,4.90
2023-05-03T10:45:27.662Z,4.80
2023-05-03T10:48:13.522Z,4.90
2023-05-03T10:50:42.037Z,6.20
2023-05-03T10:53:29.779Z,5.40
2023-05-03T10:56:15.849Z,5.50
2023-05-03T10:58:48.434Z,5.40
2023-05-03T11:01:18.210Z,5.40
2023-05-03T11:04:09.913Z,4.80
2023-05-03T11:06:41.794Z,4.80
2023-05-03T11:09:12.551Z,5.50
2023-05-03T11:11:41.501Z,5.50
2023-05-03T11:14:09.583Z,4.80
2023-05-03T11:16:40.944Z,5.20
2023-05-03T11:19:08.539Z,4.60
2023-05-03T11:21:37.009Z,5.30
2023-05-03T11:24:04.302Z,5.70
2023-05-03T11:26:36.865Z,6.10
2023-05-03T11:29:04.551Z,6.20
2023-05-03T11:31:33.133Z,5.80
2023-05-03T11:34:00.364Z,6.00
2023-05-03T11:36:28.941Z,5.70
2023-05-03T11:38:58.260Z,6.10
2023-05-03T11:41:28.656Z,6.40
2023-05-03T11:44:07.640Z,6.90
2023-05-03T11:46:42.477Z,7.20
2023-05-03T11:49:10.830Z,7.10
2023-05-03T11:51:38.137Z,7.20
2023-05-03T11:54:23.397Z,6.60
2023-05-03T11:56:58.501Z,6.30
2023-05-03T11:59:39.700Z,7.10
2023-05-03T12:02:10.328Z,7.20
2023-05-03T12:04:43.508Z,6.00
2023-05-03T12:07:17.495Z,6.40
2023-05-03T12:09:53.118Z,8.00
2023-05-03T12:12:31.758Z,6.20
2023-05-03T12:15:04.138Z,6.60
2023-05-03T12:17:44.129Z,5.90
2023-05-03T12:22:58.872Z,7.10
2023-05-03T12:25:28.915Z,7.00
2023-05-03T12:30:34.313Z,8.30
2023-05-03T12:33:04.312Z,8.70
2023-05-03T12:35:34.019Z,7.90
2023-05-03T12:38:08.203Z,8.60
2023-05-03T12:40:37.256Z,7.80
2023-05-03T12:43:05.499Z,8.40
2023-05-03T12:45:34.401Z,8.70
2023-05-03T12:48:03.365Z,8.40
2023-05-03T12:50:32.007Z,9.00
2023-05-03T12:53:02.567Z,7.90
2023-05-03T12:55:41.411Z,8.90
2023-05-03T13:00:46.592Z,8.70
2023-05-03T13:03:32.551Z,8.30
2023-05-03T13:06:08.294Z,10.80
2023-05-03T13:08:48.326Z,8.10
2023-05-03T13:11:19.817Z,9.90
2023-05-03T13:13:47.691Z,8.40
2023-05-03T13:16:15.037Z,8.70
2023-05-03T13:18:43.468Z,9.60
2023-05-03T13:21:11.568Z,8.10
2023-05-03T13:23:38.944Z,10.10
2023-05-03T13:26:07.470Z,9.30
2023-05-03T13:28:34.746Z,8.60
2023-05-03T13:31:02.398Z,10.10
2023-05-03T13:33:29.805Z,9.50
2023-05-03T13:35:57.932Z,10.30
2023-05-03T13:38:25.156Z,13.90
2023-05-03T13:40:53.383Z,9.00
2023-05-03T13:43:20.816Z,10.00
2023-05-03T13:45:48.055Z,11.10
2023-05-03T13:48:18.412Z,8.70
2023-05-03T13:50:46.706Z,9.10
2023-05-03T13:53:13.941Z,9.10
2023-05-03T13:55:41.122Z,8.90
2023-05-03T13:58:09.097Z,12.20
2023-05-03T14:00:36.518Z,10.60
2023-05-03T14:03:04.962Z,8.50
2023-05-03T14:05:32.867Z,8.90
2023-05-03T14:08:00.154Z,9.30
2023-05-03T14:10:28.385Z,9.20
2023-05-03T14:12:58.332Z,9.30
2023-05-03T14:15:25.544Z,8.50
2023-05-03T14:17:54.143Z,8.90
2023-05-03T14:20:23.991Z,7.70
2023-05-03T14:22:51.859Z,7.90
2023-05-03T14:25:19.320Z,7.80
2023-05-03T14:27:47.138Z,8.60
2023-05-03T14:30:14.690Z,9.10
2023-05-03T14:32:42.382Z,7.80
2023-05-03T14:35:10.385Z,6.60
2023-05-03T14:37:37.777Z,7.00
2023-05-03T14:40:06.222Z,6.70
2023-05-03T14:42:33.841Z,6.90
2023-05-03T14:45:01.308Z,5.80
2023-05-03T14:47:28.574Z,8.00
2023-05-03T14:49:56.524Z,6.80
2023-05-03T14:52:23.865Z,8.90
2023-05-03T14:54:51.409Z,6.30
2023-05-03T14:57:18.944Z,26.00
2023-05-03T14:59:46.145Z,12.60
2023-05-03T15:02:13.885Z,22.70
2023-05-03T15:04:41.268Z,17.00
2023-05-03T15:07:10.052Z,13.00
2023-05-03T15:09:38.673Z,11.70
2023-05-03T15:12:06.302Z,10.20
2023-05-03T15:14:33.573Z,10.60
2023-05-03T15:17:01.373Z,7.10
2023-05-03T15:19:29.000Z,8.90
2023-05-03T15:21:56.241Z,7.40
2023-05-03T15:24:23.610Z,6.40
2023-05-03T15:26:51.964Z,7.00
2023-05-03T15:29:19.207Z,5.30
2023-05-03T15:31:46.894Z,5.40
2023-05-03T15:34:14.525Z,6.40
2023-05-03T15:36:42.088Z,6.00
2023-05-03T15:39:10.379Z,5.00
2023-05-03T15:41:37.627Z,5.00
2023-05-03T15:44:05.765Z,7.50
2023-05-03T15:46:35.461Z,9.00
2023-05-03T15:49:03.194Z,8.00
2023-05-03T15:51:30.798Z,7.20
2023-05-03T15:53:59.016Z,5.00
2023-05-03T15:56:28.472Z,6.40
2023-05-03T15:58:56.893Z,6.70
2023-05-03T16:01:25.450Z,4.70
2023-05-03T16:03:52.994Z,4.90
2023-05-03T16:06:20.424Z,4.60
2023-05-03T16:08:48.262Z,9.10
2023-05-03T16:11:15.873Z,5.70
2023-05-03T16:13:43.842Z,8.40
2023-05-03T16:16:11.471Z,7.50
2023-05-03T16:18:38.890Z,6.00
2023-05-03T16:21:06.254Z,6.20
2023-05-03T16:23:33.712Z,11.60
2023-05-03T16:26:01.565Z,9.70
2023-05-03T16:28:28.945Z,13.10
2023-05-03T16:30:57.100Z,14.40
2023-05-03T16:33:24.676Z,15.50
2023-05-03T16:35:52.532Z,16.70
2023-05-03T16:38:20.301Z,11.70
2023-05-03T16:40:47.769Z,13.90
2023-05-03T16:43:16.176Z,16.90
2023-05-03T16:45:43.551Z,28.10
2023-05-03T16:48:13.505Z,23.50
2023-05-03T16:50:43.917Z,22.80
2023-05-03T16:53:13.295Z,26.30
2023-05-03T16:55:40.527Z,32.90
2023-05-03T16:58:08.702Z,24.60
2023-05-03T17:00:37.005Z,19.90
2023-05-03T17:03:04.540Z,18.40
2023-05-03T17:05:33.911Z,25.30
2023-05-03T17:08:03.784Z,25.10
2023-05-03T17:10:31.997Z,34.40
2023-05-03T17:13:02.296Z,53.60
2023-05-03T17:15:29.469Z,42.50
2023-05-03T17:17:56.770Z,46.50
2023-05-03T17:20:24.112Z,46.90
2023-05-03T17:22:52.340Z,35.80
2023-05-03T17:25:19.552Z,29.40
2023-05-03T17:27:46.857Z,22.80
2023-05-03T17:30:15.024Z,21.90
2023-05-03T17:32:42.486Z,24.30
2023-05-03T17:35:11.861Z,24.30
2023-05-03T17:37:39.848Z,36.90
2023-05-03T17:40:08.156Z,25.20
2023-05-03T17:42:35.703Z,23.30
2023-05-03T17:45:04.676Z,22.30
2023-05-03T17:47:32.326Z,21.40
2023-05-03T17:50:00.139Z,22.20
2023-05-03T17:52:27.671Z,22.30
2023-05-03T17:54:55.556Z,20.70
2023-05-03T17:57:22.934Z,24.20
2023-05-03T17:59:52.488Z,37.30
2023-05-03T18:02:20.274Z,71.90
2023-05-03T18:04:48.374Z,96.60
2023-05-03T18:07:16.484Z,82.20
2023-05-03T18:09:44.312Z,36.90
2023-05-03T18:12:11.736Z,24.70
2023-05-03T18:14:40.172Z,11.40
2023-05-03T18:17:08.655Z,8.50
2023-05-03T18:19:36.654Z,6.80
2023-05-03T18:22:04.800Z,5.30
2023-05-03T18:24:33.304Z,5.10
2023-05-03T18:27:00.681Z,6.50
2023-05-03T18:29:28.271Z,10.00
2023-05-03T18:31:59.303Z,13.80
2023-05-03T18:34:30.705Z,13.10
2023-05-03T18:36:59.266Z,23.80
2023-05-03T18:39:27.343Z,13.30
2023-05-03T18:41:55.731Z,10.90
2023-05-03T18:44:26.365Z,10.50
2023-05-03T18:46:54.838Z,7.60
2023-05-03T18:49:23.000Z,7.10
2023-05-03T18:51:51.078Z,5.20
2023-05-03T18:54:19.603Z,4.80
2023-05-03T18:56:47.849Z,4.30
2023-05-03T18:59:16.279Z,5.00
2023-05-03T19:01:44.317Z,3.90
2023-05-03T19:04:12.169Z,4.60
2023-05-03T19:06:41.457Z,7.60
2023-05-03T19:09:12.974Z,6.30
2023-05-03T19:11:50.257Z,5.30
2023-05-03T19:14:18.846Z,8.50
2023-05-03T19:16:47.386Z,6.00
2023-05-03T19:19:15.334Z,4.60
2023-05-03T19:21:45.160Z,5.90
2023-05-03T19:24:15.565Z,5.40
2023-05-03T19:26:43.673Z,4.30
2023-05-03T19:29:12.157Z,4.80
2023-05-03T19:31:40.416Z,4.30
2023-05-03T19:34:08.897Z,4.10
2023-05-03T19:36:36.512Z,4.00
2023-05-03T19:39:04.960Z,4.70
2023-05-03T19:41:32.803Z,3.90
2023-05-03T19:44:03.672Z,4.50
2023-05-03T19:46:32.042Z,4.50
2023-05-03T19:48:59.367Z,4.00
2023-05-03T19:51:28.962Z,4.90
2023-05-03T19:53:57.329Z,4.40
2023-05-03T19:56:30.020Z,4.40
2023-05-03T19:58:58.133Z,4.70
2023-05-03T20:01:25.985Z,5.00
2023-05-03T20:03:55.337Z,4.70
2023-05-03T20:06:22.899Z,5.00
2023-05-03T20:08:51.417Z,5.30
2023-05-03T20:11:20.683Z,5.10
2023-05-03T20:13:48.890Z,5.10
2023-05-03T20:16:19.324Z,5.60
2023-05-03T20:18:48.481Z,4.90
2023-05-03T20:21:20.184Z,4.80
2023-05-03T20:23:49.629Z,4.90
2023-05-03T20:26:19.870Z,4.80
2023-05-03T20:28:46.960Z,5.50
2023-05-03T20:31:14.617Z,5.40
2023-05-03T20:33:42.579Z,5.60
2023-05-03T20:36:09.846Z,5.60
2023-05-03T20:38:37.190Z,5.20
2023-05-03T20:41:05.516Z,5.40
2023-05-03T20:43:32.703Z,5.70
2023-05-03T20:46:00.036Z,5.30
2023-05-03T20:48:27.678Z,5.80
2023-05-03T20:50:55.423Z,5.90
2023-05-03T20:53:22.661Z,5.50
2023-05-03T20:56:00.872Z,6.30
2023-05-03T20:58:28.234Z,6.10
2023-05-03T21:00:57.715Z,5.80
2023-05-03T21:03:26.636Z,5.80
2023-05-03T21:05:54.231Z,6.20
2023-05-03T21:08:21.685Z,6.40
2023-05-03T21:10:49.139Z,6.30
2023-05-03T21:13:16.551Z,6.00
2023-05-03T21:15:43.999Z,6.00
2023-05-03T21:18:11.942Z,5.90
2023-05-03T21:20:39.488Z,5.80
2023-05-03T21:23:06.797Z,6.30
2023-05-03T21:25:34.389Z,6.10
2023-05-03T21:28:01.632Z,5.80
2023-05-03T21:30:29.315Z,6.40
2023-05-03T21:32:57.862Z,6.10
2023-05-03T21:35:25.267Z,6.70
2023-05-03T21:37:53.349Z,6.10
2023-05-03T21:40:22.459Z,6.90
2023-05-03T21:42:52.769Z,6.40
2023-05-03T21:45:20.984Z,5.90
2023-05-03T21:47:50.341Z,6.20
2023-05-03T21:50:18.102Z,6.90
2023-05-03T21:52:45.889Z,6.30
2023-05-03T21:55:13.787Z,6.40
2023-05-03T21:57:41.033Z,5.90
2023-05-03T22:00:09.167Z,6.50
2023-05-03T22:02:36.655Z,7.10
2023-05-03T22:05:03.983Z,6.50
2023-05-03T22:07:31.437Z,6.70
2023-05-03T22:09:59.120Z,6.50
2023-05-03T22:12:26.774Z,6.50
2023-05-03T22:14:54.587Z,6.40
2023-05-03T22:17:22.268Z,6.30
2023-05-03T22:19:49.410Z,6.60
2023-05-03T22:22:17.001Z,6.60
2023-05-03T22:24:44.772Z,6.50
2023-05-03T22:27:11.955Z,6.90
2023-05-03T22:29:41.433Z,6.20
2023-05-03T22:32:09.063Z,6.10
2023-05-03T22:34:36.858Z,7.00
2023-05-03T22:37:03.962Z,6.60
2023-05-03T22:39:31.517Z,6.00
2023-05-03T22:41:59.425Z,6.80
2023-05-03T22:44:27.372Z,6.50
2023-05-03T22:46:54.728Z,6.90
2023-05-03T22:49:21.863Z,6.30
2023-05-03T22:51:49.405Z,6.90
2023-05-03T22:54:16.761Z,6.90
2023-05-03T22:56:44.169Z,6.30
2023-05-03T22:59:12.311Z,6.50
2023-05-03T23:01:39.653Z,6.40
2023-05-03T23:04:06.844Z,7.00
2023-05-03T23:06:34.322Z,6.70
2023-05-03T23:09:01.932Z,6.70
2023-05-03T23:11:28.998Z,6.80
2023-05-03T23:13:56.670Z,7.00
2023-05-03T23:16:24.701Z,7.20
2023-05-03T23:18:54.200Z,6.90
2023-05-03T23:21:22.951Z,7.20
2023-05-03T23:23:50.633Z,7.40
2023-05-03T23:26:17.707Z,7.30
2023-05-03T23:28:45.393Z,7.40
2023-05-03T23:31:13.515Z,6.70
2023-05-03T23:33:41.448Z,6.90
2023-05-03T23:36:09.244Z,7.20
2023-05-03T23:38:36.734Z,7.00
2023-05-03T23:41:03.994Z,6.60
2023-05-03T23:43:31.130Z,6.80
2023-05-03T23:45:58.865Z,7.10
2023-05-03T23:48:29.299Z,6.90
2023-05-03T23:50:56.945Z,6.80
2023-05-03T23:53:24.802Z,6.50
2023-05-03T23:55:52.045Z,6.90
2023-05-03T23:58:19.562Z,6.30
